Terminal Aerodrome Forecast
Issued by NWS

Home | Current Version | Previous Version | Text Only | Print | Product List | Glossary On
Versions: 1 2 3 4 5 6 7 8 9 10 11 12 13 14 15 16 17 18 19 20
798
FTUS43 KDLH 101735
TAFBRD
TAF
KBRD 101735Z 1018/1118 12003KT P6SM SCT018 BKN090 BKN140
      TEMPO 1018/1020 BKN020 OVC120
     FM110200 11005KT P6SM VCSH SCT028 OVC040
     FM110600 10006KT 4SM -SHSN BR SCT012 OVC018
     FM111100 08007KT 2SM -SN BR SCT008 OVC012=

USA.gov is the U.S. government's official web portal to all federal, state and local government web resources and services.